sensor_id;sensor_type;location;lat;lon;timestamp;temperature;humidity
24772;DHT22;12870;52.274;9.754;2023-08-30T00:00:15;14.40;99.90
24772;DHT22;12870;52.274;9.754;2023-08-30T00:02:46;14.40;99.90
24772;DHT22;12870;52.274;9.754;2023-08-30T00:05:11;14.30;99.90
24772;DHT22;12870;52.274;9.754;2023-08-30T00:07:37;14.30;99.90
24772;DHT22;12870;52.274;9.754;2023-08-30T00:10:03;14.20;99.90
24772;DHT22;12870;52.274;9.754;2023-08-30T00:12:29;14.20;99.90
24772;DHT22;12870;52.274;9.754;2023-08-30T00:14:55;14.20;99.90
24772;DHT22;12870;52.274;9.754;2023-08-30T00:17:22;14.20;99.90
24772;DHT22;12870;52.274;9.754;2023-08-30T00:19:47;14.20;99.90
24772;DHT22;12870;52.274;9.754;2023-08-30T00:22:14;14.20;99.90
24772;DHT22;12870;52.274;9.754;2023-08-30T00:24:40;14.20;99.90
24772;DHT22;12870;52.274;9.754;2023-08-30T00:27:06;14.10;99.90
24772;DHT22;12870;52.274;9.754;2023-08-30T00:29:31;14.10;99.90
24772;DHT22;12870;52.274;9.754;2023-08-30T00:31:57;14.10;99.90
24772;DHT22;12870;52.274;9.754;2023-08-30T00:34:23;14.10;99.90
24772;DHT22;12870;52.274;9.754;2023-08-30T00:36:49;14.10;99.90
24772;DHT22;12870;52.274;9.754;2023-08-30T00:39:14;14.10;99.90
24772;DHT22;12870;52.274;9.754;2023-08-30T00:41:40;14.10;99.90
24772;DHT22;12870;52.274;9.754;2023-08-30T00:44:06;14.10;99.90
24772;DHT22;12870;52.274;9.754;2023-08-30T00:46:33;14.10;99.90
24772;DHT22;12870;52.274;9.754;2023-08-30T00:49:00;14.10;99.90
24772;DHT22;12870;52.274;9.754;2023-08-30T00:51:27;14.00;99.90
24772;DHT22;12870;52.274;9.754;2023-08-30T00:53:54;14.00;99.90
24772;DHT22;12870;52.274;9.754;2023-08-30T00:56:20;14.00;99.90
24772;DHT22;12870;52.274;9.754;2023-08-30T00:58:47;14.10;99.90
24772;DHT22;12870;52.274;9.754;2023-08-30T01:01:15;14.10;99.90
24772;DHT22;12870;52.274;9.754;2023-08-30T01:03:41;14.00;99.90
24772;DHT22;12870;52.274;9.754;2023-08-30T01:06:07;14.10;99.90
24772;DHT22;12870;52.274;9.754;2023-08-30T01:08:34;14.00;99.90
24772;DHT22;12870;52.274;9.754;2023-08-30T01:11:13;14.00;99.90
24772;DHT22;12870;52.274;9.754;2023-08-30T01:13:53;14.00;99.90
24772;DHT22;12870;52.274;9.754;2023-08-30T01:16:21;14.10;99.90
24772;DHT22;12870;52.274;9.754;2023-08-30T01:18:54;14.10;99.90
24772;DHT22;12870;52.274;9.754;2023-08-30T01:21:43;14.20;99.90
24772;DHT22;12870;52.274;9.754;2023-08-30T01:24:15;14.20;99.90
24772;DHT22;12870;52.274;9.754;2023-08-30T01:29:26;14.20;99.90
24772;DHT22;12870;52.274;9.754;2023-08-30T01:31:53;14.10;99.90
24772;DHT22;12870;52.274;9.754;2023-08-30T01:34:19;14.10;99.90
24772;DHT22;12870;52.274;9.754;2023-08-30T01:36:45;14.00;99.90
24772;DHT22;12870;52.274;9.754;2023-08-30T01:39:11;14.00;99.90
24772;DHT22;12870;52.274;9.754;2023-08-30T01:41:38;13.80;99.90
24772;DHT22;12870;52.274;9.754;2023-08-30T01:44:06;13.80;99.90
24772;DHT22;12870;52.274;9.754;2023-08-30T01:46:33;13.70;99.90
24772;DHT22;12870;52.274;9.754;2023-08-30T01:49:02;13.70;99.90
24772;DHT22;12870;52.274;9.754;2023-08-30T01:51:28;13.70;99.90
24772;DHT22;12870;52.274;9.754;2023-08-30T01:53:56;13.60;99.90
24772;DHT22;12870;52.274;9.754;2023-08-30T01:56:22;13.60;99.90
24772;DHT22;12870;52.274;9.754;2023-08-30T01:58:49;13.60;99.90
24772;DHT22;12870;52.274;9.754;2023-08-30T02:01:15;13.50;99.90
24772;DHT22;12870;52.274;9.754;2023-08-30T02:03:43;13.50;99.90
24772;DHT22;12870;52.274;9.754;2023-08-30T02:06:25;13.40;99.90
24772;DHT22;12870;52.274;9.754;2023-08-30T02:09:14;13.40;99.90
24772;DHT22;12870;52.274;9.754;2023-08-30T02:11:44;13.40;99.90
24772;DHT22;12870;52.274;9.754;2023-08-30T02:14:13;13.40;99.90
24772;DHT22;12870;52.274;9.754;2023-08-30T02:16:43;13.30;99.90
24772;DHT22;12870;52.274;9.754;2023-08-30T02:19:11;13.30;99.90
24772;DHT22;12870;52.274;9.754;2023-08-30T02:21:39;13.30;99.90
24772;DHT22;12870;52.274;9.754;2023-08-30T02:24:05;13.30;99.90
24772;DHT22;12870;52.274;9.754;2023-08-30T02:26:31;13.30;99.90
24772;DHT22;12870;52.274;9.754;2023-08-30T02:28:56;13.30;99.90
24772;DHT22;12870;52.274;9.754;2023-08-30T02:31:22;13.30;99.90
24772;DHT22;12870;52.274;9.754;2023-08-30T02:33:47;13.40;99.90
24772;DHT22;12870;52.274;9.754;2023-08-30T02:36:13;13.40;99.90
24772;DHT22;12870;52.274;9.754;2023-08-30T02:38:39;13.40;99.90
24772;DHT22;12870;52.274;9.754;2023-08-30T02:41:04;13.50;99.90
24772;DHT22;12870;52.274;9.754;2023-08-30T02:43:30;13.50;99.90
24772;DHT22;12870;52.274;9.754;2023-08-30T02:45:56;13.50;99.90
24772;DHT22;12870;52.274;9.754;2023-08-30T02:48:21;13.60;99.90
24772;DHT22;12870;52.274;9.754;2023-08-30T02:50:47;13.50;99.90
24772;DHT22;12870;52.274;9.754;2023-08-30T02:53:13;13.60;99.90
24772;DHT22;12870;52.274;9.754;2023-08-30T02:55:38;13.60;99.90
24772;DHT22;12870;52.274;9.754;2023-08-30T02:58:04;13.60;99.90
24772;DHT22;12870;52.274;9.754;2023-08-30T03:00:30;13.60;99.90
24772;DHT22;12870;52.274;9.754;2023-08-30T03:02:55;13.70;99.90
24772;DHT22;12870;52.274;9.754;2023-08-30T03:05:21;13.70;99.90
24772;DHT22;12870;52.274;9.754;2023-08-30T03:07:47;13.80;99.90
24772;DHT22;12870;52.274;9.754;2023-08-30T03:10:13;13.80;99.90
24772;DHT22;12870;52.274;9.754;2023-08-30T03:12:38;13.90;99.90
24772;DHT22;12870;52.274;9.754;2023-08-30T03:15:04;14.00;99.90
24772;DHT22;12870;52.274;9.754;2023-08-30T03:17:31;14.00;99.90
24772;DHT22;12870;52.274;9.754;2023-08-30T03:19:56;13.90;99.90
24772;DHT22;12870;52.274;9.754;2023-08-30T03:22:22;13.80;99.90
24772;DHT22;12870;52.274;9.754;2023-08-30T03:24:48;13.70;99.90
24772;DHT22;12870;52.274;9.754;2023-08-30T03:27:15;13.50;99.90
24772;DHT22;12870;52.274;9.754;2023-08-30T03:29:41;13.50;99.90
24772;DHT22;12870;52.274;9.754;2023-08-30T03:32:07;13.50;99.90
24772;DHT22;12870;52.274;9.754;2023-08-30T03:34:33;13.50;99.90
24772;DHT22;12870;52.274;9.754;2023-08-30T03:36:58;13.50;99.90
24772;DHT22;12870;52.274;9.754;2023-08-30T03:39:24;13.50;99.90
24772;DHT22;12870;52.274;9.754;2023-08-30T03:41:50;13.50;99.90
24772;DHT22;12870;52.274;9.754;2023-08-30T03:44:16;13.50;99.90
24772;DHT22;12870;52.274;9.754;2023-08-30T03:46:41;13.50;99.90
24772;DHT22;12870;52.274;9.754;2023-08-30T03:49:07;13.40;99.90
24772;DHT22;12870;52.274;9.754;2023-08-30T03:51:33;13.40;99.90
24772;DHT22;12870;52.274;9.754;2023-08-30T03:53:58;13.30;99.90
24772;DHT22;12870;52.274;9.754;2023-08-30T03:56:24;13.20;99.90
24772;DHT22;12870;52.274;9.754;2023-08-30T03:58:50;13.20;99.90
24772;DHT22;12870;52.274;9.754;2023-08-30T04:01:15;13.20;99.90
24772;DHT22;12870;52.274;9.754;2023-08-30T04:03:41;13.20;99.90
24772;DHT22;12870;52.274;9.754;2023-08-30T04:06:07;13.30;99.90
24772;DHT22;12870;52.274;9.754;2023-08-30T04:08:32;13.30;99.90
24772;DHT22;12870;52.274;9.754;2023-08-30T04:10:58;13.40;99.90
24772;DHT22;12870;52.274;9.754;2023-08-30T04:13:24;13.40;99.90
24772;DHT22;12870;52.274;9.754;2023-08-30T04:15:50;13.40;99.90
24772;DHT22;12870;52.274;9.754;2023-08-30T04:18:16;13.40;99.90
24772;DHT22;12870;52.274;9.754;2023-08-30T04:20:46;13.40;99.90
24772;DHT22;12870;52.274;9.754;2023-08-30T04:23:12;13.40;99.90
24772;DHT22;12870;52.274;9.754;2023-08-30T04:25:38;13.40;99.90
24772;DHT22;12870;52.274;9.754;2023-08-30T04:28:03;13.50;99.90
24772;DHT22;12870;52.274;9.754;2023-08-30T04:30:29;13.50;99.90
24772;DHT22;12870;52.274;9.754;2023-08-30T04:32:55;13.40;99.90
24772;DHT22;12870;52.274;9.754;2023-08-30T04:35:21;13.50;99.90
24772;DHT22;12870;52.274;9.754;2023-08-30T04:37:47;13.50;99.90
24772;DHT22;12870;52.274;9.754;2023-08-30T04:40:14;13.40;99.90
24772;DHT22;12870;52.274;9.754;2023-08-30T04:42:39;13.50;99.90
24772;DHT22;12870;52.274;9.754;2023-08-30T04:45:06;13.50;99.90
24772;DHT22;12870;52.274;9.754;2023-08-30T04:47:32;13.50;99.90
24772;DHT22;12870;52.274;9.754;2023-08-30T04:49:58;13.50;99.90
24772;DHT22;12870;52.274;9.754;2023-08-30T04:52:23;13.60;99.90
24772;DHT22;12870;52.274;9.754;2023-08-30T04:54:49;13.60;99.90
24772;DHT22;12870;52.274;9.754;2023-08-30T04:57:16;13.70;99.90
24772;DHT22;12870;52.274;9.754;2023-08-30T04:59:45;13.80;99.90
24772;DHT22;12870;52.274;9.754;2023-08-30T05:02:11;13.90;99.90
24772;DHT22;12870;52.274;9.754;2023-08-30T05:04:37;14.00;99.90
24772;DHT22;12870;52.274;9.754;2023-08-30T05:07:04;14.10;99.90
24772;DHT22;12870;52.274;9.754;2023-08-30T05:09:30;14.20;99.90
24772;DHT22;12870;52.274;9.754;2023-08-30T05:11:56;14.10;99.90
24772;DHT22;12870;52.274;9.754;2023-08-30T05:14:22;14.20;99.90
24772;DHT22;12870;52.274;9.754;2023-08-30T05:16:49;14.20;99.90
24772;DHT22;12870;52.274;9.754;2023-08-30T05:19:15;14.20;99.90
24772;DHT22;12870;52.274;9.754;2023-08-30T05:21:42;14.10;99.90
24772;DHT22;12870;52.274;9.754;2023-08-30T05:24:08;14.10;99.90
24772;DHT22;12870;52.274;9.754;2023-08-30T05:26:36;14.00;99.90
24772;DHT22;12870;52.274;9.754;2023-08-30T05:29:02;13.90;99.90
24772;DHT22;12870;52.274;9.754;2023-08-30T05:31:28;13.90;99.90
24772;DHT22;12870;52.274;9.754;2023-08-30T05:33:53;14.00;99.90
24772;DHT22;12870;52.274;9.754;2023-08-30T05:36:19;14.10;99.90
24772;DHT22;12870;52.274;9.754;2023-08-30T05:38:44;14.10;99.90
24772;DHT22;12870;52.274;9.754;2023-08-30T05:41:10;14.10;99.90
24772;DHT22;12870;52.274;9.754;2023-08-30T05:43:36;14.20;99.90
24772;DHT22;12870;52.274;9.754;2023-08-30T05:46:01;14.30;99.90
24772;DHT22;12870;52.274;9.754;2023-08-30T05:48:33;14.30;99.90
24772;DHT22;12870;52.274;9.754;2023-08-30T05:50:58;14.30;99.90
24772;DHT22;12870;52.274;9.754;2023-08-30T05:53:24;14.30;99.90
24772;DHT22;12870;52.274;9.754;2023-08-30T05:55:50;14.30;99.90
24772;DHT22;12870;52.274;9.754;2023-08-30T05:58:16;14.50;99.90
24772;DHT22;12870;52.274;9.754;2023-08-30T06:00:43;14.50;99.90
24772;DHT22;12870;52.274;9.754;2023-08-30T06:03:09;14.60;99.90
24772;DHT22;12870;52.274;9.754;2023-08-30T06:05:36;14.70;99.90
24772;DHT22;12870;52.274;9.754;2023-08-30T06:08:02;14.70;99.90
24772;DHT22;12870;52.274;9.754;2023-08-30T06:10:28;14.80;99.90
24772;DHT22;12870;52.274;9.754;2023-08-30T06:12:53;14.80;99.90
24772;DHT22;12870;52.274;9.754;2023-08-30T06:15:19;14.80;99.90
24772;DHT22;12870;52.274;9.754;2023-08-30T06:17:45;14.80;99.90
24772;DHT22;12870;52.274;9.754;2023-08-30T06:20:12;14.90;99.90
24772;DHT22;12870;52.274;9.754;2023-08-30T06:22:38;15.00;99.90
24772;DHT22;12870;52.274;9.754;2023-08-30T06:25:04;15.10;99.90
24772;DHT22;12870;52.274;9.754;2023-08-30T06:27:32;15.20;99.90
24772;DHT22;12870;52.274;9.754;2023-08-30T06:29:58;15.30;99.90
24772;DHT22;12870;52.274;9.754;2023-08-30T06:32:23;15.40;99.90
24772;DHT22;12870;52.274;9.754;2023-08-30T06:34:49;15.40;99.90
24772;DHT22;12870;52.274;9.754;2023-08-30T06:37:15;15.60;99.90
24772;DHT22;12870;52.274;9.754;2023-08-30T06:39:40;15.60;99.90
24772;DHT22;12870;52.274;9.754;2023-08-30T06:42:06;15.60;99.90
24772;DHT22;12870;52.274;9.754;2023-08-30T06:44:32;15.60;99.90
24772;DHT22;12870;52.274;9.754;2023-08-30T06:46:57;15.70;99.90
24772;DHT22;12870;52.274;9.754;2023-08-30T06:49:23;15.70;99.90
24772;DHT22;12870;52.274;9.754;2023-08-30T06:51:49;15.70;99.90
24772;DHT22;12870;52.274;9.754;2023-08-30T06:54:15;15.70;99.90
24772;DHT22;12870;52.274;9.754;2023-08-30T06:56:41;15.70;99.90
24772;DHT22;12870;52.274;9.754;2023-08-30T06:59:06;15.60;99.90
24772;DHT22;12870;52.274;9.754;2023-08-30T07:01:32;15.70;99.90
24772;DHT22;12870;52.274;9.754;2023-08-30T07:03:58;15.70;99.90
24772;DHT22;12870;52.274;9.754;2023-08-30T07:06:25;15.80;99.90
24772;DHT22;12870;52.274;9.754;2023-08-30T07:08:55;15.90;99.90
24772;DHT22;12870;52.274;9.754;2023-08-30T07:11:20;16.10;99.90
24772;DHT22;12870;52.274;9.754;2023-08-30T07:13:46;16.20;99.90
24772;DHT22;12870;52.274;9.754;2023-08-30T07:16:12;16.40;99.90
24772;DHT22;12870;52.274;9.754;2023-08-30T07:18:37;16.50;99.90
24772;DHT22;12870;52.274;9.754;2023-08-30T07:21:05;16.50;99.90
24772;DHT22;12870;52.274;9.754;2023-08-30T07:23:30;16.70;99.90
24772;DHT22;12870;52.274;9.754;2023-08-30T07:25:56;16.80;99.90
24772;DHT22;12870;52.274;9.754;2023-08-30T07:28:22;16.90;99.90
24772;DHT22;12870;52.274;9.754;2023-08-30T07:30:47;16.90;99.90
24772;DHT22;12870;52.274;9.754;2023-08-30T07:33:13;17.00;99.90
24772;DHT22;12870;52.274;9.754;2023-08-30T07:35:38;17.10;99.90
24772;DHT22;12870;52.274;9.754;2023-08-30T07:38:05;17.10;99.90
24772;DHT22;12870;52.274;9.754;2023-08-30T07:40:31;17.20;99.90
24772;DHT22;12870;52.274;9.754;2023-08-30T07:42:57;17.20;99.90
24772;DHT22;12870;52.274;9.754;2023-08-30T07:45:22;17.30;99.90
24772;DHT22;12870;52.274;9.754;2023-08-30T07:47:48;17.30;99.90
24772;DHT22;12870;52.274;9.754;2023-08-30T07:50:13;17.40;99.90
24772;DHT22;12870;52.274;9.754;2023-08-30T07:52:39;17.60;99.90
24772;DHT22;12870;52.274;9.754;2023-08-30T07:55:05;17.70;99.90
24772;DHT22;12870;52.274;9.754;2023-08-30T07:57:31;17.80;99.90
24772;DHT22;12870;52.274;9.754;2023-08-30T07:59:56;17.90;99.90
24772;DHT22;12870;52.274;9.754;2023-08-30T08:02:22;18.00;99.90
24772;DHT22;12870;52.274;9.754;2023-08-30T08:04:47;18.10;99.90
24772;DHT22;12870;52.274;9.754;2023-08-30T08:07:15;18.20;99.90
24772;DHT22;12870;52.274;9.754;2023-08-30T08:09:40;18.30;99.90
24772;DHT22;12870;52.274;9.754;2023-08-30T08:12:06;18.40;99.90
24772;DHT22;12870;52.274;9.754;2023-08-30T08:14:32;18.30;99.90
24772;DHT22;12870;52.274;9.754;2023-08-30T08:16:58;18.50;99.90
24772;DHT22;12870;52.274;9.754;2023-08-30T08:19:23;18.50;99.90
24772;DHT22;12870;52.274;9.754;2023-08-30T08:21:49;18.50;99.90
24772;DHT22;12870;52.274;9.754;2023-08-30T08:24:15;18.50;99.90
24772;DHT22;12870;52.274;9.754;2023-08-30T08:26:40;18.70;99.90
24772;DHT22;12870;52.274;9.754;2023-08-30T08:29:06;18.80;99.90
24772;DHT22;12870;52.274;9.754;2023-08-30T08:31:32;18.80;99.90
24772;DHT22;12870;52.274;9.754;2023-08-30T08:34:11;18.80;99.90
24772;DHT22;12870;52.274;9.754;2023-08-30T08:36:41;18.70;99.90
24772;DHT22;12870;52.274;9.754;2023-08-30T08:39:07;18.60;99.90
24772;DHT22;12870;52.274;9.754;2023-08-30T08:41:42;18.60;99.90
24772;DHT22;12870;52.274;9.754;2023-08-30T08:44:09;18.60;99.90
24772;DHT22;12870;52.274;9.754;2023-08-30T08:46:36;18.70;99.90
24772;DHT22;12870;52.274;9.754;2023-08-30T08:49:09;18.80;99.90
24772;DHT22;12870;52.274;9.754;2023-08-30T08:51:37;18.90;99.90
24772;DHT22;12870;52.274;9.754;2023-08-30T08:54:03;19.00;99.90
24772;DHT22;12870;52.274;9.754;2023-08-30T08:56:30;19.00;99.90
24772;DHT22;12870;52.274;9.754;2023-08-30T08:58:57;19.30;99.90
24772;DHT22;12870;52.274;9.754;2023-08-30T09:01:24;19.80;99.90
24772;DHT22;12870;52.274;9.754;2023-08-30T09:03:50;20.20;99.90
24772;DHT22;12870;52.274;9.754;2023-08-30T09:06:16;20.50;99.90
24772;DHT22;12870;52.274;9.754;2023-08-30T09:08:42;20.60;99.90
24772;DHT22;12870;52.274;9.754;2023-08-30T09:11:08;21.00;99.90
24772;DHT22;12870;52.274;9.754;2023-08-30T09:13:34;21.40;99.90
24772;DHT22;12870;52.274;9.754;2023-08-30T09:16:00;21.70;99.90
24772;DHT22;12870;52.274;9.754;2023-08-30T09:18:25;21.90;99.90
24772;DHT22;12870;52.274;9.754;2023-08-30T09:21:19;21.90;99.90
24772;DHT22;12870;52.274;9.754;2023-08-30T09:23:44;21.90;99.90
24772;DHT22;12870;52.274;9.754;2023-08-30T09:26:10;21.90;99.90
24772;DHT22;12870;52.274;9.754;2023-08-30T09:28:43;21.80;99.90
24772;DHT22;12870;52.274;9.754;2023-08-30T09:31:17;21.70;99.90
24772;DHT22;12870;52.274;9.754;2023-08-30T09:33:45;21.90;99.90
24772;DHT22;12870;52.274;9.754;2023-08-30T09:36:11;21.90;99.90
24772;DHT22;12870;52.274;9.754;2023-08-30T09:38:37;22.10;99.90
24772;DHT22;12870;52.274;9.754;2023-08-30T09:41:06;22.00;99.90
24772;DHT22;12870;52.274;9.754;2023-08-30T09:43:35;21.90;99.90
24772;DHT22;12870;52.274;9.754;2023-08-30T09:46:04;21.90;99.90
24772;DHT22;12870;52.274;9.754;2023-08-30T09:48:31;21.70;99.90
24772;DHT22;12870;52.274;9.754;2023-08-30T09:50:58;21.80;99.90
24772;DHT22;12870;52.274;9.754;2023-08-30T09:53:26;21.70;99.90
24772;DHT22;12870;52.274;9.754;2023-08-30T09:55:55;21.40;99.90
24772;DHT22;12870;52.274;9.754;2023-08-30T09:58:22;21.40;99.90
24772;DHT22;12870;52.274;9.754;2023-08-30T10:00:49;21.30;99.90
24772;DHT22;12870;52.274;9.754;2023-08-30T10:03:15;21.40;99.90
24772;DHT22;12870;52.274;9.754;2023-08-30T10:05:45;21.60;99.90
24772;DHT22;12870;52.274;9.754;2023-08-30T10:08:11;21.70;99.90
24772;DHT22;12870;52.274;9.754;2023-08-30T10:10:39;21.50;99.90
24772;DHT22;12870;52.274;9.754;2023-08-30T10:13:05;21.50;99.90
24772;DHT22;12870;52.274;9.754;2023-08-30T10:15:33;21.30;99.90
24772;DHT22;12870;52.274;9.754;2023-08-30T10:18:02;21.40;99.90
24772;DHT22;12870;52.274;9.754;2023-08-30T10:20:29;21.60;99.90
24772;DHT22;12870;52.274;9.754;2023-08-30T10:22:56;21.60;99.90
24772;DHT22;12870;52.274;9.754;2023-08-30T10:25:26;21.70;99.90
24772;DHT22;12870;52.274;9.754;2023-08-30T10:27:53;21.70;99.90
24772;DHT22;12870;52.274;9.754;2023-08-30T10:30:21;21.90;99.90
24772;DHT22;12870;52.274;9.754;2023-08-30T10:32:47;21.90;99.90
24772;DHT22;12870;52.274;9.754;2023-08-30T10:35:15;21.90;99.90
24772;DHT22;12870;52.274;9.754;2023-08-30T10:37:41;21.70;99.90
24772;DHT22;12870;52.274;9.754;2023-08-30T10:40:07;21.50;99.90
24772;DHT22;12870;52.274;9.754;2023-08-30T10:42:34;21.70;99.90
24772;DHT22;12870;52.274;9.754;2023-08-30T10:45:04;22.10;99.90
24772;DHT22;12870;52.274;9.754;2023-08-30T10:47:33;22.30;99.90
24772;DHT22;12870;52.274;9.754;2023-08-30T10:50:06;22.70;99.90
24772;DHT22;12870;52.274;9.754;2023-08-30T10:52:32;23.00;99.90
24772;DHT22;12870;52.274;9.754;2023-08-30T10:55:24;23.00;99.90
24772;DHT22;12870;52.274;9.754;2023-08-30T10:58:03;22.70;99.90
24772;DHT22;12870;52.274;9.754;2023-08-30T11:00:32;22.90;99.90
24772;DHT22;12870;52.274;9.754;2023-08-30T11:02:58;23.10;99.90
24772;DHT22;12870;52.274;9.754;2023-08-30T11:05:26;23.30;99.90
24772;DHT22;12870;52.274;9.754;2023-08-30T11:07:53;23.80;99.90
24772;DHT22;12870;52.274;9.754;2023-08-30T11:10:20;23.90;99.90
24772;DHT22;12870;52.274;9.754;2023-08-30T11:12:47;24.10;99.90
24772;DHT22;12870;52.274;9.754;2023-08-30T11:15:14;23.70;99.90
24772;DHT22;12870;52.274;9.754;2023-08-30T11:17:41;23.60;99.90
24772;DHT22;12870;52.274;9.754;2023-08-30T11:20:08;23.90;99.90
24772;DHT22;12870;52.274;9.754;2023-08-30T11:22:39;24.00;99.90
24772;DHT22;12870;52.274;9.754;2023-08-30T11:25:07;23.40;99.90
24772;DHT22;12870;52.274;9.754;2023-08-30T11:27:33;23.00;99.90
24772;DHT22;12870;52.274;9.754;2023-08-30T11:30:00;23.10;99.90
24772;DHT22;12870;52.274;9.754;2023-08-30T11:32:28;22.90;99.90
24772;DHT22;12870;52.274;9.754;2023-08-30T11:34:57;22.60;99.90
24772;DHT22;12870;52.274;9.754;2023-08-30T11:37:26;22.50;99.90
24772;DHT22;12870;52.274;9.754;2023-08-30T11:39:53;22.30;99.90
24772;DHT22;12870;52.274;9.754;2023-08-30T11:42:19;22.10;99.90
24772;DHT22;12870;52.274;9.754;2023-08-30T11:44:45;22.10;99.90
24772;DHT22;12870;52.274;9.754;2023-08-30T11:47:11;22.20;99.90
24772;DHT22;12870;52.274;9.754;2023-08-30T11:49:36;22.50;99.90
24772;DHT22;12870;52.274;9.754;2023-08-30T11:52:06;22.70;99.90
24772;DHT22;12870;52.274;9.754;2023-08-30T11:54:31;22.90;99.90
24772;DHT22;12870;52.274;9.754;2023-08-30T11:56:57;23.30;99.90
24772;DHT22;12870;52.274;9.754;2023-08-30T11:59:23;23.70;99.90
24772;DHT22;12870;52.274;9.754;2023-08-30T12:01:51;24.60;99.90
24772;DHT22;12870;52.274;9.754;2023-08-30T12:04:17;25.70;99.90
24772;DHT22;12870;52.274;9.754;2023-08-30T12:06:50;26.90;99.90
24772;DHT22;12870;52.274;9.754;2023-08-30T12:09:16;27.30;99.90
24772;DHT22;12870;52.274;9.754;2023-08-30T12:11:41;27.30;98.90
24772;DHT22;12870;52.274;9.754;2023-08-30T12:14:07;26.70;97.20
24772;DHT22;12870;52.274;9.754;2023-08-30T12:16:34;26.90;98.20
24772;DHT22;12870;52.274;9.754;2023-08-30T12:19:12;27.10;94.20
24772;DHT22;12870;52.274;9.754;2023-08-30T12:21:47;27.20;93.30
24772;DHT22;12870;52.274;9.754;2023-08-30T12:24:12;26.70;93.00
24772;DHT22;12870;52.274;9.754;2023-08-30T12:26:38;27.10;93.20
24772;DHT22;12870;52.274;9.754;2023-08-30T12:29:05;27.60;91.30
24772;DHT22;12870;52.274;9.754;2023-08-30T12:31:32;28.00;91.80
24772;DHT22;12870;52.274;9.754;2023-08-30T12:33:58;27.70;89.50
24772;DHT22;12870;52.274;9.754;2023-08-30T12:36:24;28.50;91.80
24772;DHT22;12870;52.274;9.754;2023-08-30T12:38:50;28.80;90.00
24772;DHT22;12870;52.274;9.754;2023-08-30T12:41:16;29.20;87.00
24772;DHT22;12870;52.274;9.754;2023-08-30T12:43:41;29.80;82.10
24772;DHT22;12870;52.274;9.754;2023-08-30T12:46:07;29.60;78.70
24772;DHT22;12870;52.274;9.754;2023-08-30T12:48:33;29.10;80.70
24772;DHT22;12870;52.274;9.754;2023-08-30T12:50:59;27.90;82.40
24772;DHT22;12870;52.274;9.754;2023-08-30T12:53:24;26.80;83.20
24772;DHT22;12870;52.274;9.754;2023-08-30T12:55:50;26.10;85.70
24772;DHT22;12870;52.274;9.754;2023-08-30T12:58:15;25.60;88.70
24772;DHT22;12870;52.274;9.754;2023-08-30T13:00:41;24.90;88.70
24772;DHT22;12870;52.274;9.754;2023-08-30T13:03:07;24.80;90.80
24772;DHT22;12870;52.274;9.754;2023-08-30T13:05:32;24.90;89.40
24772;DHT22;12870;52.274;9.754;2023-08-30T13:07:59;24.10;90.40
24772;DHT22;12870;52.274;9.754;2023-08-30T13:10:25;23.80;91.10
24772;DHT22;12870;52.274;9.754;2023-08-30T13:12:50;23.60;92.60
24772;DHT22;12870;52.274;9.754;2023-08-30T13:15:16;23.40;91.90
24772;DHT22;12870;52.274;9.754;2023-08-30T13:17:42;23.60;92.80
24772;DHT22;12870;52.274;9.754;2023-08-30T13:20:08;24.10;92.50
24772;DHT22;12870;52.274;9.754;2023-08-30T13:22:34;24.30;93.00
24772;DHT22;12870;52.274;9.754;2023-08-30T13:24:59;24.20;92.70
24772;DHT22;12870;52.274;9.754;2023-08-30T13:27:25;24.00;92.30
24772;DHT22;12870;52.274;9.754;2023-08-30T13:29:51;23.60;93.10
24772;DHT22;12870;52.274;9.754;2023-08-30T13:32:16;23.40;93.70
24772;DHT22;12870;52.274;9.754;2023-08-30T13:34:42;23.10;93.60
24772;DHT22;12870;52.274;9.754;2023-08-30T13:37:11;22.90;94.60
24772;DHT22;12870;52.274;9.754;2023-08-30T13:39:37;22.90;95.80
24772;DHT22;12870;52.274;9.754;2023-08-30T13:42:03;22.90;95.90
24772;DHT22;12870;52.274;9.754;2023-08-30T13:44:29;22.90;96.40
24772;DHT22;12870;52.274;9.754;2023-08-30T13:46:55;22.90;96.70
24772;DHT22;12870;52.274;9.754;2023-08-30T13:49:20;22.80;97.00
24772;DHT22;12870;52.274;9.754;2023-08-30T13:51:46;22.70;96.90
24772;DHT22;12870;52.274;9.754;2023-08-30T13:54:12;22.70;97.50
24772;DHT22;12870;52.274;9.754;2023-08-30T13:56:37;22.70;97.40
24772;DHT22;12870;52.274;9.754;2023-08-30T13:59:03;22.60;97.50
24772;DHT22;12870;52.274;9.754;2023-08-30T14:01:32;22.50;97.90
24772;DHT22;12870;52.274;9.754;2023-08-30T14:03:57;22.50;97.40
24772;DHT22;12870;52.274;9.754;2023-08-30T14:06:23;22.50;98.10
24772;DHT22;12870;52.274;9.754;2023-08-30T14:08:48;22.40;97.30
24772;DHT22;12870;52.274;9.754;2023-08-30T14:11:14;22.10;98.30
24772;DHT22;12870;52.274;9.754;2023-08-30T14:13:40;22.20;98.60
24772;DHT22;12870;52.274;9.754;2023-08-30T14:16:06;22.30;98.70
24772;DHT22;12870;52.274;9.754;2023-08-30T14:18:32;22.30;98.70
24772;DHT22;12870;52.274;9.754;2023-08-30T14:20:58;22.20;98.80
24772;DHT22;12870;52.274;9.754;2023-08-30T14:23:25;22.30;99.30
24772;DHT22;12870;52.274;9.754;2023-08-30T14:26:02;22.40;99.60
24772;DHT22;12870;52.274;9.754;2023-08-30T14:28:29;22.60;99.50
24772;DHT22;12870;52.274;9.754;2023-08-30T14:30:55;22.70;98.80
24772;DHT22;12870;52.274;9.754;2023-08-30T14:33:20;22.70;99.10
24772;DHT22;12870;52.274;9.754;2023-08-30T14:35:46;22.60;99.10
24772;DHT22;12870;52.274;9.754;2023-08-30T14:38:12;22.50;98.70
24772;DHT22;12870;52.274;9.754;2023-08-30T14:40:38;22.40;97.60
24772;DHT22;12870;52.274;9.754;2023-08-30T14:43:04;22.30;97.70
24772;DHT22;12870;52.274;9.754;2023-08-30T14:45:30;22.30;98.10
24772;DHT22;12870;52.274;9.754;2023-08-30T14:47:57;22.20;98.60
24772;DHT22;12870;52.274;9.754;2023-08-30T14:50:22;22.20;99.00
24772;DHT22;12870;52.274;9.754;2023-08-30T14:52:48;22.10;99.50
24772;DHT22;12870;52.274;9.754;2023-08-30T14:55:14;22.00;99.90
24772;DHT22;12870;52.274;9.754;2023-08-30T14:57:40;21.70;99.90
24772;DHT22;12870;52.274;9.754;2023-08-30T15:00:06;21.40;99.90
24772;DHT22;12870;52.274;9.754;2023-08-30T15:02:33;21.00;99.90
24772;DHT22;12870;52.274;9.754;2023-08-30T15:04:58;20.80;99.90
24772;DHT22;12870;52.274;9.754;2023-08-30T15:07:24;20.70;99.90
24772;DHT22;12870;52.274;9.754;2023-08-30T15:09:50;20.40;99.90
24772;DHT22;12870;52.274;9.754;2023-08-30T15:12:16;20.40;99.90
24772;DHT22;12870;52.274;9.754;2023-08-30T15:14:41;20.20;99.90
24772;DHT22;12870;52.274;9.754;2023-08-30T15:17:09;20.20;99.90
24772;DHT22;12870;52.274;9.754;2023-08-30T15:19:35;20.20;99.90
24772;DHT22;12870;52.274;9.754;2023-08-30T15:22:02;20.20;99.90
24772;DHT22;12870;52.274;9.754;2023-08-30T15:24:27;20.00;99.90
24772;DHT22;12870;52.274;9.754;2023-08-30T15:26:53;19.80;99.90
24772;DHT22;12870;52.274;9.754;2023-08-30T15:29:19;19.80;99.90